createdAt,value
2017-04-24T00:00:04.596Z,929.8
2017-04-24T00:00:32.780Z,929.84
2017-04-24T00:01:01.126Z,929.91
2017-04-24T00:01:29.471Z,929.86
2017-04-24T00:01:57.849Z,929.86
2017-04-24T00:03:09.222Z,929.92
2017-04-24T00:03:37.504Z,929.86
2017-04-24T00:04:05.724Z,929.83
2017-04-24T00:04:33.914Z,929.85
2017-04-24T00:05:02.242Z,929.8
2017-04-24T00:05:30.643Z,929.84
2017-04-24T00:05:58.793Z,929.77
2017-04-24T00:06:27.175Z,929.82
2017-04-24T00:06:55.425Z,929.78
2017-04-24T00:07:23.779Z,929.87
2017-04-24T00:07:52.066Z,929.81
2017-04-24T00:09:03.517Z,929.77
2017-04-24T00:09:31.801Z,929.76
2017-04-24T00:10:00.207Z,929.8
2017-04-24T00:10:28.588Z,929.81
2017-04-24T00:10:56.915Z,929.79
2017-04-24T00:11:25.333Z,929.76
2017-04-24T00:11:53.575Z,929.78
2017-04-24T00:12:21.842Z,929.77
2017-04-24T00:12:50.207Z,929.78
2017-04-24T00:13:18.566Z,929.76
2017-04-24T00:13:46.759Z,929.76
2017-04-24T00:14:58.111Z,929.75
2017-04-24T00:15:26.482Z,929.76
2017-04-24T00:15:54.888Z,929.79
2017-04-24T00:16:23.175Z,929.83
2017-04-24T00:16:51.316Z,929.8
2017-04-24T00:17:19.533Z,929.8
2017-04-24T00:17:47.769Z,929.79
2017-04-24T00:18:16.161Z,929.81
2017-04-24T00:18:44.432Z,929.86
2017-04-24T00:19:12.800Z,929.79
2017-04-24T00:19:41.211Z,929.84
2017-04-24T00:20:52.581Z,929.79
2017-04-24T00:21:20.966Z,929.85
2017-04-24T00:21:49.365Z,929.83
2017-04-24T00:22:17.750Z,929.8
2017-04-24T00:22:45.797Z,929.83
2017-04-24T00:23:14.238Z,929.82
2017-04-24T00:23:42.574Z,929.8
2017-04-24T00:24:10.975Z,929.82
2017-04-24T00:24:39.252Z,929.83
2017-04-24T00:25:07.528Z,929.86
2017-04-24T00:25:35.906Z,929.82
2017-04-24T00:26:47.255Z,929.8
2017-04-24T00:27:15.525Z,929.81
2017-04-24T00:27:43.920Z,929.81
2017-04-24T00:28:12.212Z,929.82
2017-04-24T00:28:40.443Z,929.84
2017-04-24T00:29:08.743Z,929.8
2017-04-24T00:29:36.986Z,929.87
2017-04-24T00:30:05.268Z,929.89
2017-04-24T00:30:33.415Z,929.89
2017-04-24T00:31:01.667Z,929.9
2017-04-24T00:31:29.947Z,929.85
2017-04-24T00:32:41.390Z,929.8
2017-04-24T00:33:09.581Z,929.81
2017-04-24T00:33:37.982Z,929.88
2017-04-24T00:34:06.273Z,929.88
2017-04-24T00:34:34.598Z,929.82
2017-04-24T00:35:02.895Z,929.86
2017-04-24T00:35:31.231Z,929.83
2017-04-24T00:35:59.504Z,929.84
2017-04-24T00:36:27.661Z,929.87
2017-04-24T00:36:55.822Z,929.87
2017-04-24T00:37:24.026Z,929.88
2017-04-24T00:38:35.290Z,929.91
2017-04-24T00:39:03.581Z,929.87
2017-04-24T00:39:31.986Z,929.87
2017-04-24T00:40:00.364Z,929.98
2017-04-24T00:40:28.693Z,929.92
2017-04-24T00:40:57.100Z,929.84
2017-04-24T00:41:25.248Z,929.86
2017-04-24T00:41:53.614Z,929.87
2017-04-24T00:42:21.872Z,929.91
2017-04-24T00:42:50.226Z,929.9
2017-04-24T00:43:18.512Z,929.89
2017-04-24T00:44:29.980Z,929.86
2017-04-24T00:44:58.273Z,929.91
2017-04-24T00:45:26.577Z,929.92
2017-04-24T00:45:54.960Z,929.86
2017-04-24T00:46:23.290Z,929.88
2017-04-24T00:46:51.527Z,929.86
2017-04-24T00:47:19.867Z,929.83
2017-04-24T00:47:48.052Z,929.86
2017-04-24T00:48:16.513Z,929.85
2017-04-24T00:48:44.774Z,929.83
2017-04-24T00:49:13.150Z,929.84
2017-04-24T00:50:24.504Z,929.97
2017-04-24T00:50:52.792Z,929.88
2017-04-24T00:51:21.196Z,929.84
2017-04-24T00:51:49.579Z,929.89
2017-04-24T00:52:17.914Z,929.94
2017-04-24T00:52:46.202Z,929.85
2017-04-24T00:53:14.265Z,929.84
2017-04-24T00:53:42.636Z,929.91
2017-04-24T00:54:10.991Z,929.91
2017-04-24T00:54:39.352Z,929.89
2017-04-24T00:55:07.654Z,929.85
2017-04-24T00:56:19.016Z,929.91
2017-04-24T00:56:47.400Z,929.89
2017-04-24T00:57:15.800Z,929.9
2017-04-24T00:57:44.175Z,929.89
2017-04-24T00:58:12.500Z,929.92
2017-04-24T00:58:40.814Z,929.92
2017-04-24T00:59:09.060Z,929.92
2017-04-24T00:59:37.335Z,929.99
2017-04-24T01:00:05.593Z,929.97
2017-04-24T01:00:33.944Z,929.9
2017-04-24T01:01:02.226Z,929.94
2017-04-24T01:02:13.582Z,929.95
2017-04-24T01:02:41.959Z,929.95
2017-04-24T01:03:10.364Z,929.91
2017-04-24T01:03:38.653Z,929.91
2017-04-24T01:04:06.983Z,929.97
2017-04-24T01:04:35.096Z,929.93
2017-04-24T01:05:03.330Z,929.92
2017-04-24T01:05:31.608Z,929.95
2017-04-24T01:05:59.869Z,929.91
2017-04-24T01:06:28.222Z,929.94
2017-04-24T01:06:56.606Z,929.93
2017-04-24T01:08:08.055Z,930
2017-04-24T01:08:36.339Z,929.95
2017-04-24T01:09:04.745Z,929.91
2017-04-24T01:09:33.039Z,929.92
2017-04-24T01:10:01.177Z,929.86
2017-04-24T01:10:29.580Z,929.92
2017-04-24T01:10:57.829Z,929.92
2017-04-24T01:11:26.965Z,929.96
2017-04-24T01:11:55.128Z,929.88
2017-04-24T01:12:23.514Z,929.9
2017-04-24T01:12:51.879Z,929.85
2017-04-24T01:14:03.258Z,929.88
2017-04-24T01:14:31.642Z,929.85
2017-04-24T01:15:00.039Z,929.8
2017-04-24T01:15:28.323Z,929.86
2017-04-24T01:15:56.650Z,929.82
2017-04-24T01:16:24.954Z,929.87
2017-04-24T01:16:53.194Z,929.83
2017-04-24T01:17:21.473Z,929.82
2017-04-24T01:17:49.820Z,929.79
2017-04-24T01:18:18.173Z,929.81
2017-04-24T01:18:46.561Z,929.8
2017-04-24T01:19:58.025Z,929.82
2017-04-24T01:20:26.313Z,929.8
2017-04-24T01:20:54.621Z,929.83
2017-04-24T01:21:22.903Z,929.81
2017-04-24T01:21:51.130Z,929.86
2017-04-24T01:22:19.438Z,929.81
2017-04-24T01:22:47.779Z,929.81
2017-04-24T01:23:16.078Z,929.82
2017-04-24T01:23:44.422Z,929.82
2017-04-24T01:24:12.772Z,929.85
2017-04-24T01:24:41.100Z,929.84
2017-04-24T01:25:52.472Z,929.85
2017-04-24T01:26:20.846Z,929.78
2017-04-24T01:26:49.249Z,929.82
2017-04-24T01:27:17.545Z,929.84
2017-04-24T01:27:45.869Z,929.82
2017-04-24T01:28:14.295Z,929.89
2017-04-24T01:28:42.537Z,929.97
2017-04-24T01:29:10.897Z,929.82
2017-04-24T01:29:39.255Z,929.87
2017-04-24T01:30:07.530Z,929.83
2017-04-24T01:30:35.810Z,929.87
2017-04-24T01:31:47.277Z,929.82
2017-04-24T01:32:15.559Z,929.85
2017-04-24T01:32:44.222Z,929.87
2017-04-24T01:33:12.598Z,929.77
2017-04-24T01:33:40.834Z,929.8
2017-04-24T01:34:09.231Z,929.82
2017-04-24T01:34:37.567Z,929.91
2017-04-24T01:35:05.844Z,929.86
2017-04-24T01:35:34.090Z,929.86
2017-04-24T01:36:02.342Z,929.86
2017-04-24T01:36:30.674Z,929.92
2017-04-24T01:37:42.140Z,929.89
2017-04-24T01:38:10.519Z,929.94
2017-04-24T01:38:38.918Z,929.96
2017-04-24T01:39:07.215Z,929.96
2017-04-24T01:39:35.444Z,930.11
2017-04-24T01:40:03.648Z,929.93
2017-04-24T01:40:31.795Z,929.92
2017-04-24T01:41:00.165Z,929.97
2017-04-24T01:41:28.456Z,929.91
2017-04-24T01:41:56.726Z,929.98
2017-04-24T01:42:25.016Z,929.97
2017-04-24T01:43:36.377Z,929.95
2017-04-24T01:44:04.682Z,930.01
2017-04-24T01:44:33.080Z,929.92
2017-04-24T01:45:01.457Z,929.93
2017-04-24T01:45:29.786Z,929.93
2017-04-24T01:45:58.195Z,929.96
2017-04-24T01:46:26.342Z,929.86
2017-04-24T01:46:54.616Z,929.86
2017-04-24T01:47:22.918Z,930.01
2017-04-24T01:47:51.268Z,930.12
2017-04-24T01:48:19.649Z,929.93
2017-04-24T01:49:30.917Z,929.91
2017-04-24T01:49:59.206Z,929.96
2017-04-24T01:50:27.607Z,929.96
2017-04-24T01:50:55.901Z,929.94
2017-04-24T01:51:24.135Z,929.92
2017-04-24T01:51:52.520Z,929.9
2017-04-24T01:52:20.858Z,929.89
2017-04-24T01:52:49.215Z,929.92
2017-04-24T01:53:17.457Z,929.91
2017-04-24T01:53:45.709Z,929.91
2017-04-24T01:54:13.904Z,929.81
2017-04-24T01:55:25.166Z,929.86
2017-04-24T01:55:53.361Z,929.86
2017-04-24T01:56:21.485Z,929.88
2017-04-24T01:56:49.766Z,929.83
2017-04-24T01:57:17.997Z,929.92
2017-04-24T01:57:46.387Z,929.92
2017-04-24T01:58:14.724Z,929.91
2017-04-24T01:58:42.999Z,929.92
2017-04-24T01:59:11.062Z,929.92
2017-04-24T01:59:39.315Z,929.9
2017-04-24T02:00:07.595Z,929.92
2017-04-24T02:01:19.048Z,929.86
2017-04-24T02:01:47.242Z,929.91
2017-04-24T02:02:15.458Z,929.9
2017-04-24T02:02:43.648Z,929.93
2017-04-24T02:03:11.790Z,929.9
2017-04-24T02:03:40.186Z,929.89
2017-04-24T02:04:08.429Z,929.92
2017-04-24T02:04:36.803Z,929.95
2017-04-24T02:05:05.162Z,929.9
2017-04-24T02:05:33.416Z,929.84
2017-04-24T02:06:01.630Z,929.88
2017-04-24T02:07:13.094Z,929.9
2017-04-24T02:07:41.467Z,929.9
2017-04-24T02:08:09.777Z,929.9
2017-04-24T02:08:37.972Z,929.89
2017-04-24T02:09:06.207Z,929.87
2017-04-24T02:09:34.507Z,929.89
2017-04-24T02:10:02.753Z,929.9
2017-04-24T02:10:31.119Z,929.8
2017-04-24T02:10:59.454Z,929.84
2017-04-24T02:11:27.702Z,929.82
2017-04-24T02:11:55.885Z,929.77
2017-04-24T02:13:07.331Z,929.82
2017-04-24T02:13:35.706Z,929.84
2017-04-24T02:14:04.017Z,929.79
2017-04-24T02:14:32.208Z,929.79
2017-04-24T02:15:00.535Z,929.86
2017-04-24T02:15:28.547Z,929.83
2017-04-24T02:15:56.790Z,930.01
2017-04-24T02:16:24.872Z,929.81
2017-04-24T02:16:53.214Z,929.84
2017-04-24T02:17:21.560Z,929.86
2017-04-24T02:17:49.845Z,929.81
2017-04-24T02:19:01.191Z,929.88
2017-04-24T02:19:29.560Z,929.81
2017-04-24T02:19:57.968Z,929.85
2017-04-24T02:20:26.255Z,929.76
2017-04-24T02:20:54.581Z,929.77
2017-04-24T02:21:22.881Z,929.8
2017-04-24T02:21:51.031Z,929.81
2017-04-24T02:22:19.387Z,929.77
2017-04-24T02:22:47.644Z,929.83
2017-04-24T02:23:15.908Z,929.79
2017-04-24T02:23:44.085Z,929.78
2017-04-24T02:24:55.435Z,929.78
2017-04-24T02:25:23.807Z,929.78
2017-04-24T02:25:52.027Z,929.8
2017-04-24T02:26:20.307Z,929.76
2017-04-24T02:26:48.544Z,929.76
2017-04-24T02:27:16.740Z,929.8
2017-04-24T02:27:44.986Z,929.72
2017-04-24T02:28:13.278Z,929.82
2017-04-24T02:28:41.429Z,929.84
2017-04-24T02:29:09.586Z,929.82
2017-04-24T02:29:37.870Z,929.8
2017-04-24T02:30:49.303Z,929.81
2017-04-24T02:31:17.676Z,929.85
2017-04-24T02:31:45.884Z,929.85
2017-04-24T02:32:14.165Z,929.82
2017-04-24T02:32:42.492Z,929.8
2017-04-24T02:33:10.789Z,929.81
2017-04-24T02:33:39.029Z,929.79
2017-04-24T02:34:07.206Z,929.84
2017-04-24T02:34:35.265Z,929.86
2017-04-24T02:35:03.517Z,929.78
2017-04-24T02:35:31.888Z,929.8
2017-04-24T02:36:43.050Z,929.79
2017-04-24T02:37:11.336Z,929.78
2017-04-24T02:37:39.644Z,929.83
2017-04-24T02:38:07.925Z,929.75
2017-04-24T02:38:36.359Z,929.78
2017-04-24T02:39:04.741Z,929.68
2017-04-24T02:39:33.074Z,929.67
2017-04-24T02:40:01.347Z,929.75
2017-04-24T02:40:29.494Z,929.78
2017-04-24T02:40:57.838Z,929.69
2017-04-24T02:41:26.019Z,929.76
2017-04-24T02:42:37.282Z,929.74
2017-04-24T02:43:05.485Z,929.81
2017-04-24T02:43:33.888Z,929.73
2017-04-24T02:44:02.173Z,929.68
2017-04-24T02:44:30.218Z,929.65
2017-04-24T02:44:58.522Z,929.71
2017-04-24T02:45:26.856Z,929.68
2017-04-24T02:45:55.229Z,929.7
2017-04-24T02:46:23.553Z,929.68
2017-04-24T02:46:51.801Z,929.7
2017-04-24T02:47:20.167Z,929.67
2017-04-24T02:48:31.613Z,929.67
2017-04-24T02:48:59.986Z,929.66
2017-04-24T02:49:28.384Z,929.65
2017-04-24T02:49:56.577Z,929.67
2017-04-24T02:50:24.901Z,929.76
2017-04-24T02:50:53.199Z,929.67
2017-04-24T02:51:21.533Z,929.69
2017-04-24T02:51:50.052Z,929.68
2017-04-24T02:52:18.193Z,929.73
2017-04-24T02:52:46.536Z,929.67
2017-04-24T02:53:14.815Z,929.66
2017-04-24T02:54:25.986Z,929.66
2017-04-24T02:54:54.270Z,929.79
2017-04-24T02:55:22.669Z,929.76
2017-04-24T02:55:51.047Z,929.67
2017-04-24T02:56:19.377Z,929.65
2017-04-24T02:56:47.767Z,929.65
2017-04-24T02:57:16.097Z,929.7
2017-04-24T02:57:44.370Z,929.67
2017-04-24T02:58:12.512Z,929.69
2017-04-24T02:58:40.768Z,929.68
2017-04-24T02:59:09.045Z,929.68
2017-04-24T03:00:20.486Z,929.63
2017-04-24T03:00:48.773Z,929.68
2017-04-24T03:01:17.086Z,929.62
2017-04-24T03:01:45.372Z,929.65
2017-04-24T03:02:13.694Z,929.68
2017-04-24T03:02:41.898Z,929.69
2017-04-24T03:03:10.230Z,929.7
2017-04-24T03:03:38.501Z,929.7
2017-04-24T03:04:06.655Z,929.69
2017-04-24T03:04:34.905Z,929.71
2017-04-24T03:05:03.179Z,929.62
2017-04-24T03:06:14.343Z,929.82
2017-04-24T03:06:42.726Z,929.73
2017-04-24T03:07:11.130Z,929.63
2017-04-24T03:07:39.510Z,929.76
2017-04-24T03:08:07.744Z,929.72
2017-04-24T03:08:36.040Z,929.64
2017-04-24T03:09:04.380Z,929.68
2017-04-24T03:09:32.646Z,929.63
2017-04-24T03:10:00.885Z,929.66
2017-04-24T03:10:29.139Z,929.63
2017-04-24T03:10:57.414Z,929.62
2017-04-24T03:12:08.855Z,929.68
2017-04-24T03:12:37.228Z,929.6
2017-04-24T03:13:05.635Z,929.57
2017-04-24T03:13:34.008Z,929.62
2017-04-24T03:14:02.336Z,929.57
2017-04-24T03:14:30.717Z,929.59
2017-04-24T03:14:58.961Z,929.75
2017-04-24T03:15:27.222Z,929.53
2017-04-24T03:15:55.558Z,929.55
2017-04-24T03:16:23.903Z,929.52
2017-04-24T03:16:52.276Z,929.5
2017-04-24T03:18:03.620Z,929.54
2017-04-24T03:18:31.908Z,929.53
2017-04-24T03:19:00.216Z,929.48
2017-04-24T03:19:28.596Z,929.49
2017-04-24T03:19:56.915Z,929.47
2017-04-24T03:20:25.207Z,929.53
2017-04-24T03:20:53.361Z,929.49
2017-04-24T03:21:21.725Z,929.48
2017-04-24T03:21:49.972Z,929.44
2017-04-24T03:22:18.318Z,929.53
2017-04-24T03:22:46.683Z,929.5
2017-04-24T03:23:58.031Z,929.48
2017-04-24T03:24:26.410Z,929.5
2017-04-24T03:24:54.720Z,929.46
2017-04-24T03:25:22.999Z,929.47
2017-04-24T03:25:51.230Z,929.42
2017-04-24T03:26:19.430Z,929.43
2017-04-24T03:26:47.672Z,929.48
2017-04-24T03:27:15.848Z,929.6
2017-04-24T03:27:44.093Z,929.49
2017-04-24T03:28:12.262Z,929.53
2017-04-24T03:28:40.627Z,929.51
2017-04-24T03:29:51.882Z,929.41
2017-04-24T03:30:20.162Z,929.43
2017-04-24T03:30:48.563Z,929.5
2017-04-24T03:31:16.847Z,929.42
2017-04-24T03:31:45.076Z,929.43
2017-04-24T03:32:13.360Z,929.43
2017-04-24T03:32:41.600Z,929.35
2017-04-24T03:33:09.964Z,929.39
2017-04-24T03:33:38.203Z,929.48
2017-04-24T03:34:06.486Z,929.42
2017-04-24T03:34:34.827Z,929.33
2017-04-24T03:35:45.901Z,929.36
2017-04-24T03:36:14.186Z,929.35
2017-04-24T03:36:42.490Z,929.39
2017-04-24T03:37:10.774Z,929.39
2017-04-24T03:37:39.007Z,929.43
2017-04-24T03:38:07.300Z,929.31
2017-04-24T03:38:35.634Z,929.34
2017-04-24T03:39:04.002Z,929.28
2017-04-24T03:39:32.241Z,929.27
2017-04-24T03:40:00.495Z,929.28
2017-04-24T03:40:28.868Z,929.26
2017-04-24T03:41:40.035Z,929.27
2017-04-24T03:42:08.325Z,929.27
2017-04-24T03:42:36.730Z,929.31
2017-04-24T03:43:05.102Z,929.29
2017-04-24T03:43:33.339Z,929.29
2017-04-24T03:44:01.729Z,929.25
2017-04-24T03:44:30.060Z,929.28
2017-04-24T03:44:58.421Z,929.33
2017-04-24T03:45:26.754Z,929.27
2017-04-24T03:45:55.008Z,929.28
2017-04-24T03:46:23.385Z,929.32
2017-04-24T03:47:34.827Z,929.25
2017-04-24T03:48:03.201Z,929.28
2017-04-24T03:48:31.608Z,929.3
2017-04-24T03:48:59.981Z,929.18
2017-04-24T03:49:28.310Z,929.25
2017-04-24T03:49:56.699Z,929.22
2017-04-24T03:50:25.039Z,929.24
2017-04-24T03:50:53.314Z,929.18
2017-04-24T03:51:21.652Z,929.2
2017-04-24T03:51:49.817Z,929.15
2017-04-24T03:52:18.187Z,929.16
2017-04-24T03:53:29.642Z,929.16
2017-04-24T03:53:57.914Z,929.18
2017-04-24T03:54:26.321Z,929.2
2017-04-24T03:54:54.602Z,929.18
2017-04-24T03:55:22.751Z,929.15
2017-04-24T03:55:51.138Z,929.14
2017-04-24T03:56:19.376Z,929.2
2017-04-24T03:56:47.741Z,929.15
2017-04-24T03:57:15.983Z,929.14
2017-04-24T03:57:44.238Z,929.13
2017-04-24T03:58:12.423Z,929.11
2017-04-24T03:59:23.871Z,929.19
2017-04-24T03:59:52.155Z,929.2
2017-04-24T04:00:20.561Z,929.17
2017-04-24T04:00:48.750Z,929.18
2017-04-24T04:01:16.980Z,929.14
2017-04-24T04:01:45.271Z,929.18
2017-04-24T04:02:13.509Z,929.17
2017-04-24T04:02:41.874Z,929.14
2017-04-24T04:03:10.115Z,929.08
2017-04-24T04:03:38.462Z,929.09
2017-04-24T04:04:06.745Z,929.11
2017-04-24T04:05:18.189Z,929.09
2017-04-24T04:05:46.472Z,929.13
2017-04-24T04:06:14.876Z,929.15
2017-04-24T04:06:43.161Z,929.13
2017-04-24T04:07:11.490Z,929.13
2017-04-24T04:07:39.875Z,929.13
2017-04-24T04:08:08.119Z,929.24
2017-04-24T04:08:36.476Z,929.2
2017-04-24T04:09:04.812Z,929.13
2017-04-24T04:09:33.159Z,929.14
2017-04-24T04:10:01.535Z,929.25
2017-04-24T04:11:12.885Z,929.23
2017-04-24T04:11:41.262Z,929.17
2017-04-24T04:12:09.669Z,929.15
2017-04-24T04:12:37.955Z,929.2
2017-04-24T04:13:06.187Z,929.1
2017-04-24T04:13:34.480Z,929.17
2017-04-24T04:14:02.564Z,929.12
2017-04-24T04:14:30.739Z,929.17
2017-04-24T04:14:59.077Z,929.12
2017-04-24T04:15:27.426Z,929.09
2017-04-24T04:15:55.804Z,929.14
2017-04-24T04:17:07.246Z,929.04
2017-04-24T04:17:35.532Z,929.1
2017-04-24T04:18:03.939Z,929.09
2017-04-24T04:18:32.225Z,929.11
2017-04-24T04:19:00.550Z,929.1
2017-04-24T04:19:28.938Z,929.04
2017-04-24T04:19:57.093Z,929.01
2017-04-24T04:20:25.360Z,929.07
2017-04-24T04:20:53.698Z,929.05
2017-04-24T04:21:22.043Z,928.98
2017-04-24T04:21:50.421Z,929.03
2017-04-24T04:23:01.860Z,929
2017-04-24T04:23:30.239Z,929.03
2017-04-24T04:23:58.645Z,928.99
2017-04-24T04:24:27.019Z,929
2017-04-24T04:24:55.349Z,929.03
2017-04-24T04:25:23.636Z,928.95
2017-04-24T04:25:51.878Z,928.97
2017-04-24T04:26:20.052Z,929.04
2017-04-24T04:26:48.219Z,929.02
2017-04-24T04:27:16.565Z,928.98
2017-04-24T04:27:44.937Z,928.99
2017-04-24T04:28:56.377Z,928.97
2017-04-24T04:29:24.747Z,928.97
2017-04-24T04:29:53.151Z,929.08
2017-04-24T04:30:21.529Z,929
2017-04-24T04:30:49.853Z,928.97
2017-04-24T04:31:18.234Z,928.97
2017-04-24T04:31:46.380Z,928.96
2017-04-24T04:32:14.746Z,928.96
2017-04-24T04:32:43.082Z,928.99
2017-04-24T04:33:11.336Z,928.96
2017-04-24T04:33:39.712Z,928.91
2017-04-24T04:34:51.156Z,928.9
2017-04-24T04:35:19.526Z,928.96
2017-04-24T04:35:47.934Z,928.82
2017-04-24T04:36:16.217Z,928.94
2017-04-24T04:36:44.545Z,928.91
2017-04-24T04:37:12.934Z,928.94
2017-04-24T04:37:41.266Z,928.96
2017-04-24T04:38:09.346Z,928.89
2017-04-24T04:38:37.684Z,928.94
2017-04-24T04:39:06.035Z,928.92
2017-04-24T04:39:34.405Z,928.93
2017-04-24T04:40:45.844Z,928.96
2017-04-24T04:41:14.218Z,928.94
2017-04-24T04:41:42.624Z,928.99
2017-04-24T04:42:10.904Z,928.9
2017-04-24T04:42:39.230Z,928.91
2017-04-24T04:43:07.614Z,928.86
2017-04-24T04:43:35.667Z,928.88
2017-04-24T04:44:03.944Z,928.87
2017-04-24T04:44:32.189Z,928.89
2017-04-24T04:45:00.444Z,928.89
2017-04-24T04:45:28.812Z,928.91
2017-04-24T04:46:40.252Z,928.87
2017-04-24T04:47:08.624Z,928.93
2017-04-24T04:47:37.028Z,929.01
2017-04-24T04:48:05.408Z,928.82
2017-04-24T04:48:33.738Z,928.96
2017-04-24T04:49:02.030Z,928.92
2017-04-24T04:49:30.091Z,928.89
2017-04-24T04:49:58.454Z,928.9
2017-04-24T04:50:26.790Z,928.88
2017-04-24T04:50:55.140Z,928.88
2017-04-24T04:51:23.521Z,928.92
2017-04-24T04:52:34.955Z,928.84
2017-04-24T04:53:03.334Z,928.89
2017-04-24T04:53:31.642Z,928.83
2017-04-24T04:54:00.022Z,928.86
2017-04-24T04:54:28.350Z,928.83
2017-04-24T04:54:56.546Z,928.79
2017-04-24T04:55:24.785Z,928.86
2017-04-24T04:55:53.150Z,928.86
2017-04-24T04:56:21.398Z,928.81
2017-04-24T04:56:49.749Z,928.79
2017-04-24T04:57:18.128Z,928.84
2017-04-24T04:58:29.568Z,928.78
2017-04-24T04:58:57.943Z,928.78
2017-04-24T04:59:26.344Z,928.8
2017-04-24T04:59:54.635Z,928.81
2017-04-24T05:00:22.966Z,928.82
2017-04-24T05:00:51.357Z,928.87
2017-04-24T05:01:19.593Z,928.82
2017-04-24T05:01:47.955Z,928.83
2017-04-24T05:02:16.196Z,928.83
2017-04-24T05:02:44.541Z,928.83
2017-04-24T05:03:12.825Z,928.84
2017-04-24T05:04:24.267Z,928.8
2017-04-24T05:04:52.556Z,928.82
2017-04-24T05:05:20.965Z,928.89
2017-04-24T05:05:49.337Z,928.75
2017-04-24T05:06:17.569Z,928.8
2017-04-24T05:06:45.859Z,928.81
2017-04-24T05:07:14.103Z,928.74
2017-04-24T05:07:42.466Z,928.79
2017-04-24T05:08:10.618Z,928.76
2017-04-24T05:08:38.968Z,928.72
2017-04-24T05:09:07.244Z,928.73
2017-04-24T05:10:18.590Z,928.7
2017-04-24T05:10:46.869Z,928.68
2017-04-24T05:11:15.174Z,928.69
2017-04-24T05:11:43.451Z,928.67
2017-04-24T05:12:11.683Z,928.71
2017-04-24T05:12:40.068Z,928.69
2017-04-24T05:13:08.406Z,928.63
2017-04-24T05:13:36.579Z,928.69
2017-04-24T05:14:04.821Z,928.75
2017-04-24T05:14:33.170Z,928.69
2017-04-24T05:15:01.542Z,928.68
2017-04-24T05:16:12.978Z,928.66
2017-04-24T05:16:41.349Z,928.7
2017-04-24T05:17:09.754Z,928.74
2017-04-24T05:17:38.133Z,928.72
2017-04-24T05:18:06.458Z,928.66
2017-04-24T05:18:34.841Z,928.81
2017-04-24T05:19:03.171Z,928.7
2017-04-24T05:19:31.438Z,928.7
2017-04-24T05:19:59.684Z,928.7
2017-04-24T05:20:28.036Z,928.69
2017-04-24T05:20:56.398Z,928.69
2017-04-24T05:22:07.836Z,928.63
2017-04-24T05:22:36.121Z,928.69
2017-04-24T05:23:04.527Z,928.67
2017-04-24T05:23:32.905Z,928.57
2017-04-24T05:24:01.128Z,928.64
2017-04-24T05:24:29.513Z,928.62
2017-04-24T05:24:57.756Z,928.63
2017-04-24T05:25:26.122Z,928.59
2017-04-24T05:25:54.384Z,928.68
2017-04-24T05:26:22.731Z,928.68
2017-04-24T05:26:51.105Z,928.58
2017-04-24T05:28:02.454Z,928.58
2017-04-24T05:28:30.833Z,928.66
2017-04-24T05:28:59.240Z,928.6
2017-04-24T05:29:27.431Z,928.61
2017-04-24T05:29:55.665Z,928.61
2017-04-24T05:30:23.959Z,928.58
2017-04-24T05:30:52.114Z,928.61
2017-04-24T05:31:20.482Z,928.63
2017-04-24T05:31:48.820Z,928.62
2017-04-24T05:32:17.075Z,928.62
2017-04-24T05:32:45.442Z,928.6
2017-04-24T05:33:56.700Z,928.65
2017-04-24T05:34:24.988Z,928.6
2017-04-24T05:34:53.395Z,928.59
2017-04-24T05:35:21.769Z,928.55
2017-04-24T05:35:49.908Z,928.58
2017-04-24T05:36:18.293Z,928.6
2017-04-24T05:36:46.629Z,928.59
2017-04-24T05:37:14.898Z,928.51
2017-04-24T05:37:43.236Z,928.54
2017-04-24T05:38:11.486Z,928.55
2017-04-24T05:38:39.858Z,928.55
2017-04-24T05:39:51.309Z,928.61
2017-04-24T05:40:19.589Z,928.54
2017-04-24T05:40:47.995Z,928.52
2017-04-24T05:41:16.368Z,928.56
2017-04-24T05:41:44.695Z,928.53
2017-04-24T05:42:13.080Z,928.54
2017-04-24T05:42:41.317Z,928.5
2017-04-24T05:43:09.582Z,928.56
2017-04-24T05:43:37.824Z,928.6
2017-04-24T05:44:06.077Z,928.59
2017-04-24T05:44:34.442Z,928.5
2017-04-24T05:45:45.699Z,928.47
2017-04-24T05:46:13.990Z,928.43
2017-04-24T05:46:42.296Z,928.43
2017-04-24T05:47:10.573Z,928.45
2017-04-24T05:47:38.900Z,928.51
2017-04-24T05:48:07.281Z,928.53
2017-04-24T05:48:35.527Z,928.54
2017-04-24T05:49:03.892Z,928.53
2017-04-24T05:49:32.138Z,928.45
2017-04-24T05:50:00.399Z,928.52
2017-04-24T05:50:28.766Z,928.49
2017-04-24T05:51:40.205Z,928.41
2017-04-24T05:52:08.584Z,928.42
2017-04-24T05:52:36.982Z,928.45
2017-04-24T05:53:05.360Z,928.45
2017-04-24T05:53:33.689Z,928.38
2017-04-24T05:54:02.074Z,928.44
2017-04-24T05:54:30.223Z,928.41
2017-04-24T05:54:58.578Z,928.43
2017-04-24T05:55:26.912Z,928.42
2017-04-24T05:55:55.165Z,928.42
2017-04-24T05:56:23.535Z,928.41
2017-04-24T05:57:34.980Z,928.42
2017-04-24T05:58:03.264Z,928.4
2017-04-24T05:58:31.661Z,928.39
2017-04-24T05:58:59.943Z,928.38
2017-04-24T05:59:28.177Z,928.39
2017-04-24T05:59:56.560Z,928.41
2017-04-24T06:00:24.899Z,928.41
2017-04-24T06:00:53.173Z,928.41
2017-04-24T06:01:21.412Z,928.37
2017-04-24T06:01:49.759Z,928.41
2017-04-24T06:02:18.121Z,928.42
2017-04-24T06:03:29.564Z,928.4
2017-04-24T06:03:57.851Z,928.41
2017-04-24T06:04:26.065Z,928.42
2017-04-24T06:04:54.250Z,928.4
2017-04-24T06:05:22.575Z,928.41
2017-04-24T06:05:50.956Z,928.42
2017-04-24T06:06:19.290Z,928.42
2017-04-24T06:06:47.658Z,928.41
2017-04-24T06:07:15.900Z,928.41
2017-04-24T06:07:44.155Z,928.39
2017-04-24T06:08:12.530Z,928.47
2017-04-24T06:09:23.783Z,928.46
2017-04-24T06:09:52.168Z,928.39
2017-04-24T06:10:20.475Z,928.43
2017-04-24T06:10:48.755Z,928.42
2017-04-24T06:11:16.986Z,928.4
2017-04-24T06:11:45.391Z,928.41
2017-04-24T06:12:13.622Z,928.41
2017-04-24T06:12:41.985Z,928.43
2017-04-24T06:13:10.138Z,928.46
2017-04-24T06:13:38.294Z,928.48
2017-04-24T06:14:06.667Z,928.48
2017-04-24T06:15:18.013Z,928.43
2017-04-24T06:15:46.385Z,928.39
2017-04-24T06:16:14.780Z,928.35
2017-04-24T06:16:43.072Z,928.43
2017-04-24T06:17:11.308Z,928.46
2017-04-24T06:17:39.692Z,928.38
2017-04-24T06:18:08.026Z,928.35
2017-04-24T06:18:36.292Z,928.37
2017-04-24T06:19:04.538Z,928.34
2017-04-24T06:19:32.791Z,928.34
2017-04-24T06:20:01.160Z,928.32
2017-04-24T06:21:12.601Z,928.31
2017-04-24T06:21:40.882Z,928.33
2017-04-24T06:22:09.280Z,928.26
2017-04-24T06:22:37.567Z,928.26
2017-04-24T06:23:05.891Z,928.31
2017-04-24T06:23:34.182Z,928.35
2017-04-24T06:24:02.518Z,928.32
2017-04-24T06:24:30.881Z,928.36
2017-04-24T06:24:59.118Z,928.28
2017-04-24T06:25:27.465Z,928.26
2017-04-24T06:25:55.829Z,928.29
2017-04-24T06:27:07.187Z,928.21
2017-04-24T06:27:35.470Z,928.29
2017-04-24T06:28:03.779Z,928.28
2017-04-24T06:28:32.150Z,928.27
2017-04-24T06:29:00.470Z,928.27
2017-04-24T06:29:28.764Z,928.25
2017-04-24T06:29:57.102Z,928.3
2017-04-24T06:30:25.467Z,928.27
2017-04-24T06:30:53.531Z,928.26
2017-04-24T06:31:21.694Z,928.28
2017-04-24T06:31:50.071Z,928.29
2017-04-24T06:33:01.424Z,928.29
2017-04-24T06:33:29.715Z,928.24
2017-04-24T06:33:58.112Z,928.25
2017-04-24T06:34:26.504Z,928.25
2017-04-24T06:34:54.745Z,928.26
2017-04-24T06:35:23.122Z,928.24
2017-04-24T06:35:51.343Z,928.28
2017-04-24T06:36:19.626Z,928.25
2017-04-24T06:36:47.966Z,928.19
2017-04-24T06:37:16.250Z,928.2
2017-04-24T06:37:44.591Z,928.23
2017-04-24T06:38:55.841Z,928.24
2017-04-24T06:39:24.118Z,928.26
2017-04-24T06:39:52.518Z,928.23
2017-04-24T06:40:20.717Z,928.2
2017-04-24T06:40:48.857Z,928.21
2017-04-24T06:41:17.231Z,928.22
2017-04-24T06:41:45.350Z,928.21
2017-04-24T06:42:13.740Z,928.25
2017-04-24T06:42:42.068Z,928.22
2017-04-24T06:43:10.407Z,928.21